Panacea, FL (32346)

12:46 PM EDT on September 19, 2014 (GMT -0400)
Bald Point | Change Station
CLOSE
Current Station
Personal Weather Station
Location: Alligator Point, FL
Elevation: 40 ft
Nearby Weather Stations

Elev 40 ft 29.92 °N, 84.33 °W | Updated 1 second ago

Mostly Cloudy
Mostly Cloudy
81.1 °F
Feels Like 87 °F
N
13.0
Wind Variable Wind from SE
Gusts 17.0 mph

Today
High -- | Low -- °F
--% Chance of Precip.
Yesterday
High -- | Low -- °F
Precip. -- in
7:24 AM 7:37 PM
Waning Crescent, 18% visible
Pressure 30.00 in
Visibility 10.0 miles
Clouds Scattered Clouds 12000 ft
Overcast 20000 ft
Heat Index 87 °F
Dew Point 74 °F
Humidity 80%
Rainfall 0.00 in
Snow Depth Not available.
UV 3 out of 12
Pollen 8.30 out of 12
Air Quality Not available.
Flu Activity Not available.
METAR KTLH 191553Z 10005KT 10SM SCT120 OVC200 26/22 A3000 RMK AO2 SLP158 T02560222

More Conditions Fewer Conditions

Pressure 30.00 in
Visibility 10.0 miles
Clouds Scattered Clouds 12000 ft
Overcast 20000 ft
Heat Index 87 °F
Dew Point 74 °F
Humidity 80%
Rainfall 0.00 in
Snow Depth Not available.
UV 3 out of 12
Pollen 8.30 out of 12
Air Quality Not available.
Flu Activity Not available.
METAR KTLH 191553Z 10005KT 10SM SCT120 OVC200 26/22 A3000 RMK AO2 SLP158 T02560222

More Conditions Fewer Conditions

10-Day Weather Forecast

Almanac

Astronomy

Sep. 19, 2014 Rise Set
Actual Time 7:24 AM EDT 7:37 PM EDT
Civil Twilight 7:00 AM EDT 8:01 PM EDT
Nautical Twilight 6:32 AM EDT 8:29 PM EDT
Astronomical Twilight 6:04 AM EDT 8:57 PM EDT
Moon 3:23 AM EDT 4:53 PM EDT
Length of Visible Light 13h 01m
Length of Day
12h 13m
Tomorrow will be 1m 48s shorter.
Waning Crescent, 18% of the Moon is Illuminated
Today
Waning Crescent
Sep 24
New
Oct 1
First Quarter
Oct 8
Full
Oct 15
Last Quarter

Today's Extremes

State Highs State Lows

Community

WunderPhotos

Upload Photos

1,754,650 photos uploaded!

Nearby

Snow Depth

Station Depth Elevation
No new snow has been reported.

Earthquake Activity

City Distance Mag. Time & Date
No recent earthquake activity has been reported nearby.
Minimum magnitude displayed is 2.5.

Coastal Water Temperatures

Place Temperature
Apalachicola, FL 86.0 °F
Panama City, FL 84.9 °F

Nearby Weather Stations